Time;durP1;ratioP1;P1;durP2;ratioP2;P2;SDS_P1;SDS_P2;PMS_P1;PMS_P2;Temp;Humidity;BMP_temperature;BMP_pressure;BME280_temperature;BME280_humidity;BME280_pressure;Samples;Min_cycle;Max_cycle;Signal;HPM_P1;HPM_P2
2022/10/03 00:01:21;;;;;;;2.40;1.00;;;16.90;68.70;;;;;;4943271;29;20201;-79
2022/10/03 00:03:57;;;;;;;1.30;0.77;;;16.80;68.70;;;;;;4943840;29;20198;-77
2022/10/03 00:06:36;;;;;;;3.77;1.27;;;16.80;68.80;;;;;;4946448;29;20670;-81
2022/10/03 00:09:29;;;;;;;3.40;1.03;;;16.80;69.60;;;;;;4946033;29;20718;-76
2022/10/03 00:12:10;;;;;;;4.60;1.00;;;16.80;69.50;;;;;;4949456;29;20191;-80
2022/10/03 00:14:48;;;;;;;3.03;1.33;;;16.70;69.70;;;;;;4948418;29;20218;-80
2022/10/03 00:17:24;;;;;;;2.00;0.90;;;16.70;69.60;;;;;;4944391;29;20735;-77
2022/10/03 00:20:03;;;;;;;2.10;0.90;;;16.70;69.70;;;;;;4943670;29;20281;-79
2022/10/03 00:22:42;;;;;;;2.87;0.90;;;16.70;69.80;;;;;;4948721;29;20218;-80
2022/10/03 00:25:26;;;;;;;2.13;1.00;;;16.60;69.90;;;;;;4944419;29;20194;-80
2022/10/03 00:28:09;;;;;;;3.97;0.90;;;16.60;69.90;;;;;;4946022;29;20194;-80
2022/10/03 00:30:50;;;;;;;3.03;1.30;;;16.60;70.00;;;;;;4942569;29;20245;-80
2022/10/03 00:33:29;;;;;;;3.57;1.00;;;16.50;70.30;;;;;;4943941;29;20194;-80
2022/10/03 00:36:06;;;;;;;0.90;0.63;;;16.50;70.30;;;;;;4938604;29;20269;-78
2022/10/03 00:38:50;;;;;;;2.03;0.90;;;16.40;70.30;;;;;;4944706;29;20424;-80
2022/10/03 00:41:34;;;;;;;1.97;0.87;;;16.40;70.50;;;;;;4944791;28;20191;-80
2022/10/03 00:44:58;;;;;;;3.93;1.03;;;16.40;70.90;;;;;;4946185;29;20190;-80
2022/10/03 00:48:08;;;;;;;3.10;1.20;;;16.30;71.60;;;;;;4936750;28;20287;-80
2022/10/03 00:51:19;;;;;;;2.53;1.10;;;16.20;71.80;;;;;;4929544;29;20250;-79
2022/10/03 00:53:57;;;;;;;4.23;0.90;;;16.20;71.80;;;;;;4884243;29;20635;-80
2022/10/03 00:56:49;;;;;;;2.93;0.80;;;16.20;71.80;;;;;;4883696;29;20226;-79
2022/10/03 00:59:33;;;;;;;4.07;0.90;;;16.20;71.90;;;;;;4933988;28;20198;-80
2022/10/03 01:02:24;;;;;;;3.07;1.03;;;16.10;72.10;;;;;;4947551;28;20598;-79
2022/10/03 01:04:57;;;;;;;3.80;1.00;;;16.10;72.20;;;;;;4947924;28;20200;-80
2022/10/03 01:08:09;;;;;;;2.20;0.80;;;16.10;72.20;;;;;;4945685;29;20202;-80
2022/10/03 01:10:46;;;;;;;2.40;1.50;;;16.00;72.20;;;;;;4913407;29;20203;-79
2022/10/03 01:13:32;;;;;;;2.10;0.93;;;16.00;72.60;;;;;;4946667;28;20202;-79
2022/10/03 01:16:11;;;;;;;2.43;0.87;;;16.00;72.30;;;;;;4947212;28;20699;-79
2022/10/03 01:18:51;;;;;;;3.47;0.80;;;16.00;72.40;;;;;;4950970;29;20217;-80
2022/10/03 01:21:33;;;;;;;2.57;0.83;;;15.90;72.60;;;;;;4945124;29;20230;-79
2022/10/03 01:24:41;;;;;;;2.87;0.87;;;15.90;72.70;;;;;;4947772;29;20190;-80
2022/10/03 01:27:15;;;;;;;1.40;0.80;;;15.90;72.70;;;;;;4950369;29;20194;-80
2022/10/03 01:32:47;;;;;;;2.33;1.00;;;15.90;72.90;;;;;;4943851;29;20198;-79
2022/10/03 01:35:28;;;;;;;5.10;1.00;;;15.80;73.50;;;;;;4947927;28;20229;-80
2022/10/03 01:38:09;;;;;;;2.43;1.10;;;15.70;73.90;;;;;;4947526;29;20611;-79
2022/10/03 01:40:43;;;;;;;2.33;1.03;;;15.70;74.00;;;;;;4945095;29;20663;-79
2022/10/03 01:43:19;;;;;;;3.73;0.97;;;15.70;73.80;;;;;;4948416;28;20234;-79
2022/10/03 01:46:14;;;;;;;1.70;0.90;;;15.70;73.90;;;;;;4950708;28;20194;-80
2022/10/03 01:48:51;;;;;;;2.17;1.10;;;15.60;73.90;;;;;;4947313;29;20226;-79
2022/10/03 01:51:27;;;;;;;3.33;1.40;;;15.70;73.90;;;;;;4943986;28;20190;-80
2022/10/03 01:54:07;;;;;;;1.63;0.90;;;15.60;73.90;;;;;;4950431;28;20199;-80
2022/10/03 01:56:43;;;;;;;2.73;1.20;;;15.60;74.10;;;;;;4949735;29;20682;-79
2022/10/03 01:59:18;;;;;;;1.87;1.00;;;15.60;74.80;;;;;;4947478;28;20280;-80
2022/10/03 02:01:53;;;;;;;2.27;0.90;;;15.60;74.90;;;;;;4951307;29;20229;-78
2022/10/03 02:04:36;;;;;;;4.70;1.27;;;15.50;75.30;;;;;;4951699;28;20194;-80
2022/10/03 02:07:16;;;;;;;4.57;1.40;;;15.50;75.40;;;;;;4948756;29;20261;-79
2022/10/03 02:09:56;;;;;;;2.60;1.00;;;15.40;75.70;;;;;;4952648;29;20195;-79
2022/10/03 02:12:33;;;;;;;2.80;1.43;;;15.40;76.00;;;;;;4947144;29;20190;-79
2022/10/03 02:15:13;;;;;;;2.60;1.30;;;15.30;75.80;;;;;;4948524;28;20253;-79
2022/10/03 02:17:53;;;;;;;2.20;1.20;;;15.30;75.90;;;;;;4945419;28;20301;-80
2022/10/03 02:20:28;;;;;;;3.37;1.50;;;15.30;76.40;;;;;;4942350;29;20253;-79
2022/10/03 02:22:58;;;;;;;3.27;1.20;;;15.20;76.70;;;;;;4947321;29;20194;-80
2022/10/03 02:25:41;;;;;;;2.60;1.47;;;15.20;77.30;;;;;;4948026;28;20647;-80
2022/10/03 02:28:50;;;;;;;3.30;1.13;;;15.20;77.50;;;;;;4951265;28;20948;-80
2022/10/03 02:32:05;;;;;;;3.07;1.40;;;15.20;77.50;;;;;;4948660;29;20226;-79
2022/10/03 02:35:10;;;;;;;1.87;1.10;;;15.10;78.00;;;;;;4948927;28;20254;-80
2022/10/03 02:38:05;;;;;;;2.47;1.20;;;15.10;78.90;;;;;;4923114;29;20222;-79
2022/10/03 02:41:07;;;;;;;3.03;1.33;;;15.10;79.10;;;;;;4951062;29;20199;-79
2022/10/03 02:44:11;;;;;;;2.33;1.17;;;15.00;79.40;;;;;;4936591;29;20646;-80
2022/10/03 02:47:09;;;;;;;3.90;1.53;;;15.00;79.70;;;;;;4937593;28;20676;-80
2022/10/03 02:50:18;;;;;;;5.63;1.47;;;15.00;79.90;;;;;;4946619;29;20194;-79
2022/10/03 02:53:16;;;;;;;3.70;1.47;;;15.00;80.30;;;;;;4944722;29;20230;-80
2022/10/03 02:56:06;;;;;;;2.47;1.20;;;15.00;80.20;;;;;;4938478;29;20604;-79
2022/10/03 02:59:03;;;;;;;2.37;1.37;;;15.00;80.20;;;;;;4945387;29;20190;-79
2022/10/03 03:01:51;;;;;;;2.73;1.20;;;15.00;80.20;;;;;;4943603;29;20190;-79
2022/10/03 03:04:50;;;;;;;1.90;1.10;;;15.00;79.70;;;;;;4943926;29;20723;-80
2022/10/03 03:07:37;;;;;;;5.47;1.47;;;15.10;80.10;;;;;;4946599;28;20226;-79
2022/10/03 03:10:47;;;;;;;5.00;1.30;;;15.10;79.50;;;;;;4949513;28;20190;-80
2022/10/03 03:13:48;;;;;;;3.07;1.30;;;15.20;79.20;;;;;;4924661;28;20199;-80
2022/10/03 03:16:56;;;;;;;5.40;1.60;;;15.20;79.00;;;;;;4945756;29;20202;-79
2022/10/03 03:19:59;;;;;;;2.37;1.20;;;15.20;78.80;;;;;;4904805;29;20255;-79
2022/10/03 03:22:40;;;;;;;6.90;1.45;;;15.20;78.70;;;;;;4929567;28;20445;-79
2022/10/03 03:25:38;;;;;;;4.57;1.43;;;15.30;78.80;;;;;;4941670;28;20620;-80
2022/10/03 03:28:19;;;;;;;2.40;0.97;;;15.30;78.80;;;;;;4946260;28;20199;-79
2022/10/03 03:30:58;;;;;;;3.87;1.20;;;15.30;78.60;;;;;;4945649;29;20190;-78
2022/10/03 03:33:35;;;;;;;3.27;1.13;;;15.30;78.40;;;;;;4946688;29;20636;-79
2022/10/03 03:36:10;;;;;;;2.07;1.17;;;15.30;78.40;;;;;;4944894;29;20265;-79
2022/10/03 03:38:47;;;;;;;3.17;1.20;;;15.30;78.40;;;;;;4944076;29;20218;-79
2022/10/03 03:41:31;;;;;;;2.73;1.27;;;15.40;78.30;;;;;;4948329;28;20218;-80
2022/10/03 03:44:25;;;;;;;1.83;1.00;;;15.40;78.30;;;;;;4947080;29;20194;-79
2022/10/03 03:47:13;;;;;;;2.60;1.30;;;15.40;78.20;;;;;;4945946;29;20190;-80
2022/10/03 03:50:02;;;;;;;1.83;1.07;;;15.40;78.00;;;;;;4942841;29;20258;-79
2022/10/03 03:52:45;;;;;;;5.47;1.33;;;15.50;78.00;;;;;;4947317;28;20690;-80
2022/10/03 03:55:45;;;;;;;4.13;1.20;;;15.50;77.70;;;;;;4947779;28;20277;-80
2022/10/03 03:58:24;;;;;;;7.23;1.40;;;15.50;77.60;;;;;;4950107;28;20296;-79
2022/10/03 04:01:06;;;;;;;3.63;1.20;;;15.50;77.50;;;;;;4946303;29;20195;-80
2022/10/03 04:03:50;;;;;;;4.10;1.33;;;15.50;77.30;;;;;;4947306;29;20229;-79
2022/10/03 04:06:35;;;;;;;4.63;1.10;;;15.50;77.20;;;;;;4949371;29;20194;-80
2022/10/03 04:09:26;;;;;;;2.37;1.07;;;15.50;77.20;;;;;;4945822;29;20194;-80
2022/10/03 04:12:08;;;;;;;3.83;1.20;;;15.50;77.20;;;;;;4945974;29;20545;-79
2022/10/03 04:15:09;;;;;;;2.47;1.10;;;15.50;77.10;;;;;;4947816;29;20227;-79
2022/10/03 04:21:01;;;;;;;4.47;1.23;;;15.60;77.00;;;;;;4944392;29;20790;-80
2022/10/03 04:23:48;;;;;;;3.60;1.27;;;15.60;77.00;;;;;;4940464;28;20314;-80
2022/10/03 04:26:41;;;;;;;2.10;1.10;;;15.60;77.00;;;;;;4948458;28;20202;-79
2022/10/03 04:29:34;;;;;;;4.60;1.83;;;15.60;76.90;;;;;;4950351;29;20195;-79
2022/10/03 04:32:15;;;;;;;3.43;1.40;;;15.70;76.80;;;;;;4949200;28;20195;-79
2022/10/03 04:34:55;;;;;;;4.67;1.40;;;15.70;76.70;;;;;;4945180;29;20530;-79
2022/10/03 04:37:34;;;;;;;3.53;1.40;;;15.70;76.60;;;;;;4946284;28;20225;-79
2022/10/03 04:40:18;;;;;;;2.80;1.13;;;15.80;76.60;;;;;;4942283;28;20226;-79
2022/10/03 04:42:57;;;;;;;3.43;1.17;;;15.80;76.60;;;;;;4936620;29;20253;-78
2022/10/03 04:45:38;;;;;;;4.50;1.67;;;15.80;76.60;;;;;;4941736;29;20817;-79
2022/10/03 04:48:16;;;;;;;8.57;2.00;;;15.80;76.50;;;;;;4946367;29;20638;-80
2022/10/03 04:51:00;;;;;;;4.00;2.00;;;15.80;76.50;;;;;;4947128;28;20280;-79
2022/10/03 04:53:44;;;;;;;5.63;1.90;;;15.80;76.40;;;;;;4945543;29;20249;-79
2022/10/03 04:56:49;;;;;;;6.03;1.50;;;15.90;76.40;;;;;;4947966;29;20240;-79
2022/10/03 04:59:41;;;;;;;3.30;1.50;;;15.80;76.20;;;;;;4929321;28;20612;-77
2022/10/03 05:02:21;;;;;;;5.70;1.53;;;15.90;76.10;;;;;;4947022;29;20202;-79
2022/10/03 05:05:12;;;;;;;2.90;1.20;;;15.90;75.90;;;;;;4939302;29;20285;-79
2022/10/03 05:07:50;;;;;;;3.70;1.47;;;15.90;75.80;;;;;;4944931;29;20250;-80
2022/10/03 05:10:45;;;;;;;5.33;1.27;;;15.90;75.50;;;;;;4954275;28;20241;-79
2022/10/03 05:13:29;;;;;;;3.57;1.03;;;16.00;75.40;;;;;;4948165;29;20257;-79
2022/10/03 05:16:05;;;;;;;6.83;1.70;;;16.00;75.40;;;;;;4942616;29;20539;-81
2022/10/03 05:18:41;;;;;;;5.33;1.20;;;16.10;75.30;;;;;;4944145;28;20214;-80
2022/10/03 05:21:14;;;;;;;3.83;1.20;;;16.20;75.30;;;;;;4941894;29;20222;-79
2022/10/03 05:24:01;;;;;;;3.53;1.50;;;16.20;75.20;;;;;;4946441;28;20249;-79
2022/10/03 05:26:41;;;;;;;5.37;1.87;;;16.20;75.10;;;;;;4940330;29;20199;-80
2022/10/03 05:29:20;;;;;;;11.93;5.00;;;16.20;75.10;;;;;;4946112;29;20201;-79
2022/10/03 05:31:59;;;;;;;13.00;2.80;;;16.20;75.20;;;;;;4946887;29;20226;-78
2022/10/03 05:34:40;;;;;;;7.47;1.40;;;16.20;76.10;;;;;;4942329;29;20213;-81
2022/10/03 05:37:48;;;;;;;3.17;1.13;;;16.20;75.00;;;;;;4946411;29;20194;-80
2022/10/03 05:40:21;;;;;;;4.00;1.53;;;16.20;74.90;;;;;;4941603;28;20229;-80
2022/10/03 05:43:04;;;;;;;6.77;2.17;;;16.30;74.90;;;;;;4943900;29;20549;-80
2022/10/03 05:45:47;;;;;;;16.70;3.17;;;16.30;75.00;;;;;;4943418;29;20202;-80
2022/10/03 05:48:31;;;;;;;6.00;1.87;;;16.30;75.20;;;;;;4946397;29;20534;-79
2022/10/03 05:51:13;;;;;;;6.37;1.50;;;16.30;75.30;;;;;;4950249;28;20205;-80
2022/10/03 05:54:03;;;;;;;7.80;1.60;;;16.30;75.50;;;;;;4948745;28;20202;-79
2022/10/03 05:56:53;;;;;;;5.57;1.20;;;16.30;75.70;;;;;;4948470;29;20225;-80
2022/10/03 05:59:58;;;;;;;4.00;1.20;;;16.20;75.90;;;;;;4949247;28;20250;-80
2022/10/03 06:02:51;;;;;;;3.43;1.33;;;16.20;76.10;;;;;;4953459;28;20225;-80
2022/10/03 06:06:06;;;;;;;3.83;1.48;;;16.20;76.20;;;;;;4943169;29;20500;-80
2022/10/03 06:09:10;;;;;;;5.60;1.57;;;16.20;76.70;;;;;;4925116;28;20191;-78
2022/10/03 06:12:01;;;;;;;6.47;1.20;;;16.20;76.60;;;;;;4948085;29;20198;-79
2022/10/03 06:14:37;;;;;;;7.67;1.60;;;16.20;76.80;;;;;;4947638;29;20233;-79
2022/10/03 06:17:27;;;;;;;4.90;1.20;;;16.20;76.70;;;;;;4954421;28;20186;-80
2022/10/03 06:20:11;;;;;;;3.63;1.47;;;16.20;77.00;;;;;;4948834;29;20229;-79
2022/10/03 06:23:27;;;;;;;7.77;1.57;;;16.30;77.00;;;;;;4943974;28;20286;-80
2022/10/03 06:26:25;;;;;;;5.70;1.37;;;16.30;77.10;;;;;;4950170;29;20194;-82
2022/10/03 06:29:24;;;;;;;4.43;1.40;;;16.30;77.10;;;;;;4945058;28;20199;-78
2022/10/03 06:32:31;;;;;;;5.67;1.60;;;16.40;77.30;;;;;;4930073;28;20241;-80
2022/10/03 06:35:42;;;;;;;2.50;1.13;;;16.40;77.30;;;;;;4930468;29;20206;-81
2022/10/03 06:38:46;;;;;;;5.83;1.23;;;16.40;77.50;;;;;;4950560;29;20261;-79
2022/10/03 06:42:06;;;;;;;5.57;1.40;;;16.40;77.50;;;;;;4936963;28;20202;-79
2022/10/03 06:44:56;;;;;;;5.77;1.70;;;16.50;77.60;;;;;;4880046;29;20205;-80
2022/10/03 06:47:41;;;;;;;4.33;1.30;;;16.50;77.50;;;;;;4860384;29;20205;-81
2022/10/03 06:50:32;;;;;;;8.90;1.53;;;16.50;77.50;;;;;;4938035;29;20207;-78
2022/10/03 06:53:14;;;;;;;5.97;1.80;;;16.50;77.90;;;;;;4940751;28;20218;-81
2022/10/03 06:56:30;;;;;;;6.30;1.83;;;16.60;77.90;;;;;;4945019;29;20710;-80
2022/10/03 06:59:29;;;;;;;2.90;1.10;;;16.70;78.00;;;;;;4950790;29;20273;-79
2022/10/03 07:02:41;;;;;;;7.90;1.33;;;16.70;78.10;;;;;;4949269;29;20241;-80
2022/10/03 07:05:43;;;;;;;3.70;1.23;;;16.80;78.10;;;;;;4941636;29;20202;-79
2022/10/03 07:08:42;;;;;;;3.80;1.60;;;16.80;78.00;;;;;;4953215;29;20191;-81
2022/10/03 07:11:42;;;;;;;4.17;1.77;;;16.80;77.80;;;;;;4950359;28;20187;-84
2022/10/03 07:14:56;;;;;;;4.13;1.50;;;16.90;77.90;;;;;;4949558;29;20211;-81
2022/10/03 07:17:48;;;;;;;5.60;1.40;;;17.00;77.80;;;;;;4940146;29;20620;-83
2022/10/03 07:20:49;;;;;;;6.23;1.70;;;17.10;77.60;;;;;;4950827;29;20234;-82
2022/10/03 07:24:01;;;;;;;6.53;1.90;;;17.20;77.50;;;;;;4945147;28;20213;-80
2022/10/03 07:27:05;;;;;;;5.70;2.33;;;17.30;77.50;;;;;;4907662;29;20198;-81
2022/10/03 07:29:54;;;;;;;3.60;1.20;;;17.40;77.30;;;;;;4949587;28;20738;-83
2022/10/03 07:32:57;;;;;;;3.10;1.50;;;17.50;77.20;;;;;;4948178;29;20195;-81
2022/10/03 07:39:08;;;;;;;3.07;1.47;;;17.60;76.70;;;;;;4929472;28;20221;-77
2022/10/03 07:42:15;;;;;;;5.27;1.30;;;17.70;76.90;;;;;;4952114;29;20198;-82
2022/10/03 07:45:23;;;;;;;3.23;1.30;;;17.80;76.40;;;;;;4944799;29;20210;-78
2022/10/03 07:48:12;;;;;;;5.60;1.30;;;17.90;76.30;;;;;;4943683;29;20195;-80
2022/10/03 07:51:05;;;;;;;7.77;1.40;;;17.90;76.30;;;;;;4947858;29;20198;-80
2022/10/03 07:54:14;;;;;;;9.02;1.75;;;18.00;75.80;;;;;;4941952;29;20448;-79
2022/10/03 07:57:02;;;;;;;5.83;1.27;;;18.20;76.30;;;;;;4913568;28;20217;-84
2022/10/03 08:00:13;;;;;;;6.00;1.70;;;18.20;75.80;;;;;;4946549;29;20328;-80
2022/10/03 08:03:14;;;;;;;5.43;1.20;;;18.30;75.60;;;;;;4951097;28;20691;-78
2022/10/03 08:06:11;;;;;;;3.70;1.20;;;18.40;75.00;;;;;;4948667;29;20221;-79
2022/10/03 08:09:04;;;;;;;6.70;1.17;;;18.50;74.80;;;;;;4953537;28;20249;-79
2022/10/03 08:11:48;;;;;;;3.57;1.13;;;18.60;74.60;;;;;;4942204;28;20226;-80
2022/10/03 08:14:19;;;;;;;6.97;1.40;;;18.70;74.60;;;;;;4947116;28;20194;-80
2022/10/03 08:17:11;;;;;;;3.20;0.80;;;18.80;74.50;;;;;;4949976;29;20610;-80
2022/10/03 08:19:59;;;;;;;4.20;1.30;;;18.80;74.70;;;;;;4955398;28;20245;-81
2022/10/03 08:22:44;;;;;;;5.30;1.03;;;18.90;74.40;;;;;;4947889;29;20198;-80
2022/10/03 08:25:30;;;;;;;3.83;1.00;;;19.00;74.50;;;;;;4940391;29;20199;-82
2022/10/03 08:28:26;;;;;;;3.33;0.90;;;19.10;74.40;;;;;;4948937;28;20257;-81
2022/10/03 08:31:30;;;;;;;4.97;1.00;;;19.10;74.20;;;;;;4944590;28;20206;-79
2022/10/03 08:34:31;;;;;;;7.03;1.00;;;19.10;73.80;;;;;;4945746;29;20202;-77
2022/10/03 08:37:26;;;;;;;3.33;0.93;;;19.20;73.60;;;;;;4946003;29;20194;-80
2022/10/03 08:40:24;;;;;;;6.27;1.00;;;19.20;73.50;;;;;;4954904;29;20250;-83
2022/10/03 08:43:18;;;;;;;4.23;1.10;;;19.20;73.50;;;;;;4947323;29;20218;-78
2022/10/03 08:46:04;;;;;;;3.80;0.87;;;19.30;73.80;;;;;;4954132;28;20297;-79
2022/10/03 08:49:26;;;;;;;2.23;0.73;;;19.20;73.50;;;;;;4941281;29;20191;-80
2022/10/03 08:52:20;;;;;;;3.13;0.93;;;19.20;73.50;;;;;;4946046;29;20609;-80
2022/10/03 08:55:21;;;;;;;4.40;0.90;;;19.20;73.60;;;;;;4941627;28;20198;-80
2022/10/03 08:58:35;;;;;;;6.43;0.60;;;19.20;73.90;;;;;;4942735;28;20202;-77
2022/10/03 09:01:18;;;;;;;4.47;1.00;;;19.20;73.90;;;;;;4950573;29;20237;-81
2022/10/03 09:04:17;;;;;;;2.87;0.80;;;19.20;74.00;;;;;;4949506;28;20198;-81
2022/10/03 09:07:06;;;;;;;5.07;1.50;;;19.20;74.90;;;;;;4938947;28;20195;-80
2022/10/03 09:10:15;;;;;;;1.60;0.70;;;19.30;75.20;;;;;;4944443;29;20253;-79
2022/10/03 09:13:20;;;;;;;2.17;0.70;;;19.40;76.60;;;;;;4914407;29;20639;-78
2022/10/03 09:16:33;;;;;;;1.73;0.60;;;19.40;76.30;;;;;;4941740;29;20245;-82
2022/10/03 09:19:23;;;;;;;2.00;0.60;;;19.50;76.10;;;;;;4940834;29;20281;-81
2022/10/03 09:22:14;;;;;;;2.23;0.70;;;19.50;76.10;;;;;;4947228;29;20242;-80
2022/10/03 09:25:21;;;;;;;3.83;0.50;;;19.60;75.80;;;;;;4948817;28;20194;-85
2022/10/03 09:28:20;;;;;;;1.63;0.77;;;19.60;76.50;;;;;;4954147;28;20187;-85
2022/10/03 09:31:05;;;;;;;2.13;0.50;;;19.70;76.80;;;;;;4955969;28;20194;-87
2022/10/03 09:34:12;;;;;;;3.20;0.40;;;19.70;76.80;;;;;;4952691;29;20202;-81
2022/10/03 09:37:25;;;;;;;2.83;0.60;;;19.80;77.40;;;;;;4954772;29;20659;-88
2022/10/03 09:40:34;;;;;;;1.53;0.60;;;19.80;77.80;;;;;;4952301;28;20214;-77
2022/10/03 09:43:43;;;;;;;1.93;0.40;;;19.90;77.10;;;;;;4953260;28;20253;-79
2022/10/03 09:49:59;;;;;;;2.00;0.40;;;19.90;77.40;;;;;;4950236;28;20226;-77
2022/10/03 09:52:47;;;;;;;0.47;0.40;;;19.90;76.60;;;;;;4940221;28;20194;-86
2022/10/03 09:55:40;;;;;;;2.43;0.50;;;20.00;76.80;;;;;;4954300;29;20673;-85
2022/10/03 09:58:39;;;;;;;1.23;0.40;;;20.10;77.10;;;;;;4948069;29;20194;-83
2022/10/03 10:01:20;;;;;;;2.10;0.37;;;20.10;77.50;;;;;;4952102;28;20688;-85
2022/10/03 10:04:37;;;;;;;1.70;0.60;;;20.20;77.70;;;;;;4942316;29;20190;-88
2022/10/03 10:07:52;;;;;;;0.60;0.47;;;20.30;78.50;;;;;;4949237;29;20225;-88
2022/10/03 10:11:00;;;;;;;0.50;0.30;;;20.40;77.70;;;;;;4951020;29;20285;-81
2022/10/03 10:14:02;;;;;;;1.70;0.30;;;20.40;77.50;;;;;;4938722;29;20198;-81
2022/10/03 10:16:54;;;;;;;2.30;0.50;;;20.40;77.50;;;;;;4941136;29;20199;-81
2022/10/03 10:19:44;;;;;;;0.88;0.50;;;20.50;78.30;;;;;;4946608;29;20198;-82
2022/10/03 10:23:03;;;;;;;1.27;0.70;;;20.50;78.00;;;;;;4944766;29;21030;-77
2022/10/03 10:25:53;;;;;;;0.93;0.50;;;20.60;78.20;;;;;;4946116;29;20336;-82
2022/10/03 10:28:47;;;;;;;1.83;0.70;;;20.60;78.50;;;;;;4953860;28;20195;-81
2022/10/03 10:31:57;;;;;;;4.18;0.63;;;20.60;78.40;;;;;;4949066;29;20198;-82
2022/10/03 10:34:57;;;;;;;1.13;0.70;;;20.70;78.30;;;;;;4903467;29;20203;-77
2022/10/03 10:38:02;;;;;;;0.73;0.70;;;20.60;78.20;;;;;;4939187;28;20605;-81
2022/10/03 10:41:05;;;;;;;0.98;0.60;;;20.70;78.20;;;;;;4951858;29;20253;-79
2022/10/03 10:44:15;;;;;;;2.53;0.65;;;20.80;78.30;;;;;;4944685;29;20197;-81
2022/10/03 10:47:11;;;;;;;2.10;0.70;;;20.80;78.30;;;;;;4940616;28;20246;-78
2022/10/03 10:50:25;;;;;;;2.55;0.80;;;20.80;78.30;;;;;;4950531;28;20269;-80
2022/10/03 10:53:29;;;;;;;2.65;0.57;;;20.90;78.00;;;;;;4942861;29;20203;-84
2022/10/03 10:56:31;;;;;;;2.60;0.70;;;20.90;77.40;;;;;;4945694;29;20253;-81
2022/10/03 10:59:38;;;;;;;0.70;0.50;;;21.00;77.00;;;;;;4945785;29;20195;-83
2022/10/03 11:02:42;;;;;;;0.90;0.60;;;21.10;76.40;;;;;;4926242;28;20245;-78
2022/10/03 11:05:58;;;;;;;3.75;0.60;;;21.20;75.50;;;;;;4935688;28;20207;-80
2022/10/03 11:08:55;;;;;;;2.83;0.70;;;21.20;75.20;;;;;;4869227;29;20290;-79
2022/10/03 11:12:12;;;;;;;0.90;0.75;;;21.30;75.70;;;;;;4890240;29;20827;-82
2022/10/03 11:15:18;;;;;;;1.20;0.77;;;21.30;75.40;;;;;;4942487;29;20248;-76
2022/10/03 11:18:34;;;;;;;3.67;0.88;;;21.40;73.90;;;;;;4943601;29;20235;-82
2022/10/03 11:21:39;;;;;;;2.25;0.80;;;21.40;73.70;;;;;;4943211;28;20270;-77
2022/10/03 11:24:37;;;;;;;4.28;0.80;;;21.50;74.30;;;;;;4944224;29;20272;-82
2022/10/03 11:27:52;;;;;;;1.38;0.80;;;21.60;74.10;;;;;;4940334;29;20610;-79
2022/10/03 11:30:43;;;;;;;1.85;1.10;;;21.70;73.70;;;;;;4944117;29;20278;-80
2022/10/03 11:34:02;;;;;;;4.50;0.95;;;21.70;73.20;;;;;;4937601;29;20207;-79
2022/10/03 11:36:54;;;;;;;1.70;0.95;;;21.80;72.20;;;;;;4939309;28;20228;-80
2022/10/03 11:39:34;;;;;;;2.47;0.90;;;21.90;72.50;;;;;;4944120;29;20257;-83
2022/10/03 11:42:13;;;;;;;2.55;1.00;;;22.00;71.50;;;;;;4941811;29;20250;-82
2022/10/03 11:44:53;;;;;;;1.27;0.90;;;22.00;70.10;;;;;;4945136;29;20223;-86
2022/10/03 11:47:41;;;;;;;1.52;0.95;;;22.00;69.30;;;;;;4947968;28;20282;-80
2022/10/03 11:50:39;;;;;;;4.03;1.20;;;22.00;69.80;;;;;;4941688;28;20703;-78
2022/10/03 11:53:15;;;;;;;2.78;1.30;;;22.10;70.50;;;;;;4944808;29;20245;-84
2022/10/03 11:55:50;;;;;;;2.70;0.80;;;22.10;70.60;;;;;;4936831;29;20254;-79
2022/10/03 11:58:35;;;;;;;2.28;0.73;;;22.20;70.30;;;;;;4946960;29;20213;-79
2022/10/03 12:01:18;;;;;;;1.45;0.60;;;22.20;68.50;;;;;;4945547;28;20227;-82
2022/10/03 12:03:55;;;;;;;7.97;0.93;;;22.30;68.70;;;;;;4937208;29;20203;-82
2022/10/03 12:09:35;;;;;;;1.85;0.73;;;22.40;68.40;;;;;;4943729;29;20229;-79
2022/10/03 12:12:13;;;;;;;1.00;0.60;;;22.50;67.90;;;;;;4937452;29;20675;-78
2022/10/03 12:14:45;;;;;;;0.80;0.47;;;22.50;66.00;;;;;;4939237;29;20253;-79
2022/10/03 12:17:16;;;;;;;2.08;0.60;;;22.60;65.90;;;;;;4942315;28;20610;-85
2022/10/03 12:19:56;;;;;;;0.50;0.38;;;22.70;64.60;;;;;;4942948;28;20660;-78
2022/10/03 12:22:41;;;;;;;0.85;0.40;;;22.70;62.60;;;;;;4951371;29;20587;-80
2022/10/03 12:25:20;;;;;;;2.13;0.80;;;22.60;59.70;;;;;;4941341;28;20234;-86
2022/10/03 12:27:59;;;;;;;1.08;0.57;;;22.40;58.70;;;;;;4943447;28;20245;-83
2022/10/03 12:30:33;;;;;;;2.67;0.80;;;22.30;58.20;;;;;;4944534;29;20198;-82
2022/10/03 12:33:27;;;;;;;3.20;1.27;;;22.10;57.90;;;;;;4953122;28;20210;-83
2022/10/03 12:36:03;;;;;;;0.90;0.40;;;21.90;58.70;;;;;;4946184;28;20218;-79
2022/10/03 12:38:46;;;;;;;2.15;0.40;;;21.70;59.20;;;;;;4949244;29;20229;-81
2022/10/03 12:41:37;;;;;;;0.50;0.30;;;21.50;59.70;;;;;;4940332;29;20317;-83
2022/10/03 12:44:20;;;;;;;5.00;0.60;;;21.40;60.50;;;;;;4944680;28;20190;-78
2022/10/03 12:47:00;;;;;;;2.22;0.60;;;21.30;63.60;;;;;;4939453;29;20663;-76
2022/10/03 12:49:46;;;;;;;2.20;0.60;;;21.10;66.70;;;;;;4940233;29;20202;-82
2022/10/03 12:52:21;;;;;;;1.02;0.40;;;21.00;67.90;;;;;;4950135;29;20289;-78
2022/10/03 12:55:06;;;;;;;2.25;0.80;;;20.90;69.50;;;;;;4944418;29;20191;-79
2022/10/03 12:57:46;;;;;;;3.17;0.45;;;20.90;71.00;;;;;;4936094;29;20707;-78
2022/10/03 13:00:21;;;;;;;1.58;0.60;;;20.80;72.50;;;;;;4945630;29;20230;-78
2022/10/03 13:03:13;;;;;;;1.85;0.40;;;20.80;74.20;;;;;;4951492;28;20245;-80
2022/10/03 13:06:00;;;;;;;1.75;0.50;;;20.70;73.60;;;;;;4940912;29;20545;-81
2022/10/03 13:08:44;;;;;;;2.03;0.50;;;20.70;73.50;;;;;;4948606;28;20202;-77
2022/10/03 13:11:28;;;;;;;4.32;0.50;;;20.70;73.50;;;;;;4947126;29;20202;-80
2022/10/03 13:14:20;;;;;;;0.85;0.38;;;20.60;73.30;;;;;;4948810;29;20203;-77
2022/10/03 13:16:59;;;;;;;1.13;0.57;;;20.60;73.60;;;;;;4940142;29;20199;-78
2022/10/03 13:19:37;;;;;;;1.83;0.60;;;20.50;72.70;;;;;;4945931;29;20226;-84
2022/10/03 13:22:25;;;;;;;5.40;0.50;;;20.40;72.70;;;;;;4948771;28;20226;-79
2022/10/03 13:25:01;;;;;;;2.25;0.40;;;20.40;72.40;;;;;;4948777;28;20190;-79
2022/10/03 13:27:42;;;;;;;2.63;0.43;;;20.50;72.50;;;;;;4944886;29;20281;-78
2022/10/03 13:30:19;;;;;;;1.90;0.65;;;20.50;72.50;;;;;;4946469;29;20750;-78
2022/10/03 13:32:52;;;;;;;1.65;0.70;;;20.40;72.60;;;;;;4948621;29;20241;-79
2022/10/03 13:39:05;;;;;;;2.22;1.08;;;20.30;72.50;;;;;;4951231;29;20249;-79
2022/10/03 13:41:43;;;;;;;5.30;1.07;;;20.20;72.70;;;;;;4949343;28;20265;-78
2022/10/03 13:44:17;;;;;;;1.67;0.80;;;20.20;73.50;;;;;;4946181;29;20221;-78
2022/10/03 13:46:53;;;;;;;4.83;1.40;;;20.20;72.80;;;;;;4947229;28;20198;-78
2022/10/03 13:49:31;;;;;;;4.40;1.73;;;20.40;72.70;;;;;;4942988;29;20231;-79
2022/10/03 13:52:06;;;;;;;3.80;1.00;;;21.40;70.50;;;;;;4952320;29;20229;-78
2022/10/03 13:54:55;;;;;;;2.35;0.70;;;21.30;70.00;;;;;;4948099;28;21317;-78
2022/10/03 13:57:28;;;;;;;1.87;0.50;;;21.10;70.50;;;;;;4948163;29;20237;-79
2022/10/03 14:00:07;;;;;;;0.70;0.47;;;21.00;70.70;;;;;;4952533;28;20606;-78
2022/10/03 14:02:50;;;;;;;1.17;0.60;;;20.90;71.10;;;;;;4948600;29;20281;-79
2022/10/03 14:05:45;;;;;;;1.73;0.47;;;20.90;71.10;;;;;;4945384;29;20891;-78
2022/10/03 14:08:30;;;;;;;1.43;0.57;;;20.90;70.80;;;;;;4945711;29;20609;-79
2022/10/03 14:11:24;;;;;;;5.10;0.50;;;20.80;70.80;;;;;;4947165;29;20194;-79
2022/10/03 14:14:14;;;;;;;2.27;0.43;;;20.80;71.00;;;;;;4954192;28;20195;-78
2022/10/03 14:16:50;;;;;;;1.23;0.57;;;20.80;71.10;;;;;;4945330;29;20202;-78
2022/10/03 14:19:27;;;;;;;0.82;0.65;;;20.80;71.10;;;;;;4943965;29;20254;-80
2022/10/03 14:22:21;;;;;;;1.03;0.47;;;20.80;71.20;;;;;;4947757;28;20234;-79
2022/10/03 14:25:03;;;;;;;1.35;0.43;;;20.70;71.20;;;;;;4948832;29;20199;-79
2022/10/03 14:27:44;;;;;;;1.70;0.50;;;20.80;71.30;;;;;;4951819;29;20269;-79
2022/10/03 14:30:15;;;;;;;1.20;0.43;;;20.80;71.60;;;;;;4949356;28;20207;-78
2022/10/03 14:33:03;;;;;;;1.60;0.70;;;20.80;71.60;;;;;;4950712;29;20202;-79
2022/10/03 14:35:46;;;;;;;4.15;0.60;;;20.80;71.70;;;;;;4961951;29;20191;-78
2022/10/03 14:39:01;;;;;;;0.70;0.45;;;20.80;71.80;;;;;;4956549;29;20194;-79
2022/10/03 14:42:11;;;;;;;0.70;0.40;;;20.70;72.00;;;;;;4952777;28;20202;-79
2022/10/03 14:44:42;;;;;;;2.93;0.50;;;20.70;72.00;;;;;;4941297;29;20249;-77
2022/10/03 14:47:13;;;;;;;2.77;0.53;;;20.70;72.00;;;;;;4945858;29;20688;-79
2022/10/03 14:49:53;;;;;;;2.40;0.60;;;20.70;72.20;;;;;;4946433;29;20191;-80
2022/10/03 14:52:33;;;;;;;0.93;0.55;;;20.60;72.70;;;;;;4947015;28;20203;-79
2022/10/03 14:55:12;;;;;;;1.97;0.60;;;20.60;73.00;;;;;;4946007;29;20194;-79
2022/10/03 14:57:45;;;;;;;2.93;0.87;;;20.60;73.30;;;;;;4938727;29;20195;-80
2022/10/03 15:00:41;;;;;;;1.43;0.77;;;20.60;73.30;;;;;;4945435;28;20294;-80
2022/10/03 15:03:23;;;;;;;3.88;1.00;;;20.60;73.30;;;;;;4948155;28;20237;-80